Time;durP1;ratioP1;P1;durP2;ratioP2;P2;SDS_P1;SDS_P2;PMS_P1;PMS_P2;Temp;Humidity;BMP_temperature;BMP_pressure;BME280_temperature;BME280_humidity;BME280_pressure;Samples;Min_cycle;Max_cycle;Signal;HPM_P1;HPM_P2
2022/12/06 00:01:06;;;;;;;178.80;38.70;;;0.90;99.90;0.10;100421;;;;584198;242;24081;-76
2022/12/06 00:03:34;;;;;;;135.27;36.70;;;0.90;99.90;0.10;100421;;;;584116;242;24072;-79
2022/12/06 00:06:08;;;;;;;151.53;37.07;;;0.90;99.90;0.00;100412;;;;584394;242;24060;-77
2022/12/06 00:08:36;;;;;;;121.00;35.33;;;0.90;99.90;0.00;100405;;;;583373;242;24103;-77
2022/12/06 00:11:09;;;;;;;190.73;39.70;;;0.90;99.90;0.00;100401;;;;583636;242;24074;-77
2022/12/06 00:13:37;;;;;;;102.37;34.10;;;0.90;99.90;0.10;100392;;;;583501;242;24074;-77
2022/12/06 00:16:06;;;;;;;199.57;40.57;;;0.90;99.90;0.10;100402;;;;584073;242;24048;-76
2022/12/06 00:18:35;;;;;;;94.87;35.67;;;0.90;99.90;0.10;100406;;;;583978;242;24067;-79
2022/12/06 00:21:08;;;;;;;211.27;43.47;;;0.90;99.90;0.10;100406;;;;578929;242;35168;-79
2022/12/06 00:23:39;;;;;;;141.67;34.90;;;0.90;99.90;0.10;100408;;;;583827;242;24099;-78
2022/12/06 00:26:07;;;;;;;91.87;32.13;;;0.90;99.90;0.10;100406;;;;584003;242;24052;-81
2022/12/06 00:28:39;;;;;;;87.45;30.00;;;0.90;99.90;0.10;100409;;;;578640;242;35164;-76
2022/12/06 00:31:04;;;;;;;64.53;27.93;;;0.90;99.90;0.10;100400;;;;592042;238;24069;-77
2022/12/06 00:33:33;;;;;;;77.03;33.00;;;1.00;99.90;0.20;100393;;;;583652;242;24122;-79
2022/12/06 00:35:59;;;;;;;89.20;32.10;;;1.00;99.90;0.20;100388;;;;592744;239;24107;-78
2022/12/06 00:38:27;;;;;;;86.37;32.97;;;1.10;99.90;0.20;100395;;;;583754;242;24095;-79
2022/12/06 00:41:03;;;;;;;150.30;34.20;;;1.10;99.90;0.20;100392;;;;583692;242;24053;-79
2022/12/06 00:43:30;;;;;;;137.50;37.23;;;1.10;99.90;0.20;100401;;;;583591;240;24098;-77
2022/12/06 00:45:59;;;;;;;100.43;32.60;;;1.10;99.90;0.20;100386;;;;585120;242;24070;-78
2022/12/06 00:48:27;;;;;;;82.50;31.33;;;1.10;99.90;0.20;100389;;;;584612;242;24093;-78
2022/12/06 00:50:59;;;;;;;87.37;32.57;;;1.00;99.90;0.20;100388;;;;584608;242;24069;-78
2022/12/06 00:53:24;;;;;;;97.20;33.00;;;1.00;99.90;0.20;100389;;;;593189;238;24092;-79
2022/12/06 00:55:53;;;;;;;63.80;31.43;;;1.10;99.90;0.20;100390;;;;584432;242;24073;-78
2022/12/06 00:58:20;;;;;;;72.40;32.43;;;1.10;99.90;0.30;100399;;;;584229;242;24098;-77
2022/12/06 01:00:52;;;;;;;142.70;38.00;;;1.20;99.90;0.30;100406;;;;584439;242;24111;-78
2022/12/06 01:03:17;;;;;;;115.17;34.80;;;1.20;99.90;0.40;100404;;;;583798;242;24068;-78
2022/12/06 01:05:52;;;;;;;75.50;33.00;;;1.20;99.90;0.40;100407;;;;583946;242;24069;-79
2022/12/06 01:08:20;;;;;;;59.30;31.40;;;1.30;99.90;0.40;100399;;;;583675;242;24079;-79
2022/12/06 01:10:54;;;;;;;160.07;36.40;;;1.30;99.90;0.50;100397;;;;592718;242;25131;-79
2022/12/06 01:13:23;;;;;;;76.93;31.97;;;1.30;99.90;0.40;100396;;;;584071;242;24049;-79
2022/12/06 01:15:53;;;;;;;83.40;33.07;;;1.20;99.90;0.40;100385;;;;583918;242;24362;-79
2022/12/06 01:18:23;;;;;;;95.50;32.17;;;1.30;99.90;0.30;100376;;;;584020;242;24083;-80
2022/12/06 01:20:50;;;;;;;117.30;33.03;;;1.20;99.90;0.30;100365;;;;583736;242;24055;-80
2022/12/06 01:23:18;;;;;;;120.20;34.47;;;1.20;99.90;0.30;100366;;;;583916;242;24072;-78
2022/12/06 01:25:52;;;;;;;120.65;39.28;;;1.20;99.90;0.30;100358;;;;578641;242;35161;-78
2022/12/06 01:28:21;;;;;;;119.83;31.80;;;1.20;99.90;0.30;100361;;;;583689;242;24066;-79
2022/12/06 01:30:45;;;;;;;103.47;34.43;;;1.20;99.90;0.30;100358;;;;592647;242;24066;-80
2022/12/06 01:33:14;;;;;;;137.80;34.93;;;1.20;99.90;0.30;100355;;;;583800;242;24061;-76
2022/12/06 01:35:46;;;;;;;74.87;30.23;;;1.20;99.90;0.30;100349;;;;584089;242;24083;-79
2022/12/06 01:38:11;;;;;;;72.87;33.43;;;1.20;99.90;0.40;100348;;;;592699;242;24073;-79
2022/12/06 01:40:43;;;;;;;88.30;32.13;;;1.20;99.90;0.40;100350;;;;584090;242;24110;-78
2022/12/06 01:43:28;;;;;;;154.10;37.20;;;1.20;99.90;0.40;100345;;;;583446;242;24073;-79
2022/12/06 01:45:56;;;;;;;85.70;31.47;;;1.20;99.90;0.40;100344;;;;583593;242;24115;-76
2022/12/06 01:48:28;;;;;;;90.77;31.80;;;1.30;99.90;0.50;100337;;;;583761;242;25094;-76
2022/12/06 01:50:56;;;;;;;68.80;31.03;;;1.30;99.90;0.40;100332;;;;592504;239;24118;-76
2022/12/06 01:53:25;;;;;;;110.93;32.97;;;1.30;99.90;0.40;100325;;;;593213;242;24073;-77
2022/12/06 01:55:50;;;;;;;91.73;33.23;;;1.30;99.90;0.40;100323;;;;593418;240;24082;-77
2022/12/06 01:58:17;;;;;;;67.33;32.00;;;1.30;99.90;0.40;100317;;;;585053;242;24054;-79
2022/12/06 02:00:45;;;;;;;74.87;30.30;;;1.30;99.90;0.40;100320;;;;584256;242;24089;-77
2022/12/06 02:03:16;;;;;;;114.33;33.10;;;1.30;99.90;0.50;100310;;;;584601;242;24106;-77
2022/12/06 02:05:44;;;;;;;77.53;32.00;;;1.40;99.90;0.50;100308;;;;584116;242;24082;-79
2022/12/06 02:08:12;;;;;;;195.97;38.43;;;1.40;99.90;0.50;100307;;;;584485;242;24052;-76
2022/12/06 02:10:40;;;;;;;122.40;34.27;;;1.40;99.90;0.50;100299;;;;584218;242;24078;-81
2022/12/06 02:13:11;;;;;;;74.47;31.27;;;1.30;99.90;0.50;100298;;;;584127;242;24128;-76
2022/12/06 02:15:53;;;;;;;110.53;35.07;;;1.30;99.90;0.50;100303;;;;584004;242;24067;-75
2022/12/06 02:18:19;;;;;;;62.07;29.33;;;1.30;99.90;0.50;100298;;;;577095;242;24075;-75
2022/12/06 02:20:47;;;;;;;116.57;32.53;;;1.40;99.90;0.60;100300;;;;583761;242;24065;-76
2022/12/06 02:23:30;;;;;;;59.47;28.47;;;1.40;99.90;0.60;100290;;;;583947;242;25140;-76
2022/12/06 02:26:00;;;;;;;80.23;31.17;;;1.40;99.90;0.50;100291;;;;575799;242;24063;-77
2022/12/06 02:28:49;;;;;;;74.53;31.57;;;1.40;99.90;0.60;100288;;;;583017;242;24067;-76
2022/12/06 02:31:26;;;;;;;53.07;28.30;;;1.40;99.90;0.60;100273;;;;583932;242;24068;-77
2022/12/06 02:34:12;;;;;;;65.27;30.30;;;1.40;99.90;0.60;100274;;;;592742;238;24208;-77
2022/12/06 02:36:40;;;;;;;54.17;29.50;;;1.40;99.90;0.60;100267;;;;583634;242;24124;-77
2022/12/06 02:39:25;;;;;;;66.47;28.10;;;1.40;99.90;0.60;100269;;;;583463;242;24068;-77
2022/12/06 02:41:57;;;;;;;65.37;30.07;;;1.40;99.90;0.60;100251;;;;582331;242;24196;-78
2022/12/06 02:44:25;;;;;;;61.03;28.37;;;1.40;99.90;0.60;100256;;;;592342;242;24087;-76
2022/12/06 02:46:55;;;;;;;77.47;27.97;;;1.40;99.90;0.60;100253;;;;579592;242;24126;-76
2022/12/06 02:49:20;;;;;;;72.33;28.13;;;1.40;99.90;0.60;100249;;;;583297;242;24080;-76
2022/12/06 02:51:48;;;;;;;67.57;28.07;;;1.40;99.90;0.60;100254;;;;583585;242;24063;-76
2022/12/06 02:54:16;;;;;;;82.72;36.38;;;1.50;99.90;0.60;100256;;;;587728;242;46043;-76
2022/12/06 02:56:44;;;;;;;54.80;24.87;;;1.40;99.90;0.60;100255;;;;583710;242;24109;-77
2022/12/06 02:59:13;;;;;;;79.17;30.30;;;1.50;99.90;0.60;100251;;;;583898;242;24085;-76
2022/12/06 03:01:41;;;;;;;64.90;28.40;;;1.50;99.90;0.70;100249;;;;583729;242;24097;-76
2022/12/06 03:04:30;;;;;;;62.23;26.67;;;1.50;99.90;0.70;100248;;;;583317;242;24079;-76
2022/12/06 03:07:42;;;;;;;66.07;30.57;;;1.60;99.90;0.70;100253;;;;583426;240;24122;-76
2022/12/06 03:10:24;;;;;;;59.43;26.80;;;1.60;99.90;0.70;100260;;;;585274;238;24069;-76
2022/12/06 03:13:20;;;;;;;60.20;28.33;;;1.60;99.90;0.70;100253;;;;582457;242;24064;-77
2022/12/06 03:16:16;;;;;;;63.67;27.90;;;1.60;99.90;0.70;100255;;;;584857;242;24070;-77
2022/12/06 03:18:56;;;;;;;56.17;28.20;;;1.50;99.90;0.70;100259;;;;584276;242;24084;-77
2022/12/06 03:21:33;;;;;;;58.73;27.63;;;1.50;99.90;0.70;100245;;;;583334;242;24162;-77
2022/12/06 03:24:05;;;;;;;62.33;28.30;;;1.50;99.90;0.70;100256;;;;584242;242;24056;-77
2022/12/06 03:26:29;;;;;;;65.63;28.77;;;1.50;99.90;0.70;100260;;;;583475;242;24107;-77
2022/12/06 03:28:57;;;;;;;66.73;28.43;;;1.50;99.90;0.70;100253;;;;584021;242;24073;-78
2022/12/06 03:31:26;;;;;;;57.20;28.70;;;1.60;99.90;0.70;100248;;;;584286;242;24064;-77
2022/12/06 03:34:00;;;;;;;52.17;26.80;;;1.50;99.90;0.70;100246;;;;584346;242;24169;-78
2022/12/06 03:36:31;;;;;;;64.67;28.87;;;1.60;99.90;0.80;100238;;;;583923;242;25099;-77
2022/12/06 03:39:02;;;;;;;52.63;26.67;;;1.60;99.90;0.80;100232;;;;593036;242;24084;-81
2022/12/06 03:41:36;;;;;;;62.10;27.60;;;1.60;99.90;0.80;100231;;;;584378;242;25128;-76
2022/12/06 03:44:04;;;;;;;79.27;29.03;;;1.60;99.90;0.70;100225;;;;582495;242;24056;-79
2022/12/06 03:46:34;;;;;;;51.87;27.00;;;1.60;99.90;0.70;100223;;;;593246;242;24067;-79
2022/12/06 03:49:15;;;;;;;52.17;26.60;;;1.60;99.90;0.70;100227;;;;584058;242;24064;-78
2022/12/06 03:51:47;;;;;;;52.07;25.83;;;1.50;99.90;0.80;100231;;;;583601;242;24064;-77
2022/12/06 03:54:11;;;;;;;68.50;29.07;;;1.60;99.90;0.80;100229;;;;592149;239;24061;-79
2022/12/06 03:56:42;;;;;;;58.03;26.50;;;1.60;99.90;0.80;100225;;;;592881;242;25126;-77
2022/12/06 03:59:07;;;;;;;57.57;27.87;;;1.60;99.90;0.80;100219;;;;592412;238;24097;-77
2022/12/06 04:01:35;;;;;;;61.23;27.30;;;1.60;99.90;0.80;100210;;;;583772;242;24107;-79
2022/12/06 04:04:03;;;;;;;57.50;27.17;;;1.60;99.90;0.80;100215;;;;583694;242;24053;-79
2022/12/06 04:06:31;;;;;;;52.60;27.47;;;1.70;99.90;0.80;100208;;;;583652;242;24060;-76
2022/12/06 04:11:50;;;;;;;66.40;28.70;;;1.70;99.90;0.90;100210;;;;584058;242;24082;-77
2022/12/06 04:14:17;;;;;;;74.97;28.37;;;1.70;99.90;0.90;100207;;;;583621;242;24135;-76
2022/12/06 04:19:28;;;;;;;54.47;27.80;;;1.70;99.90;0.90;100218;;;;584691;242;24072;-77
2022/12/06 04:24:43;;;;;;;48.87;26.47;;;1.70;99.90;0.90;100217;;;;584464;242;24116;-78
2022/12/06 04:41:02;;;;;;;50.30;26.37;;;1.70;99.90;0.90;100223;;;;584164;242;24144;-76
2022/12/06 04:43:42;;;;;;;43.60;25.33;;;1.80;99.90;0.90;100204;;;;573897;247;24089;-77
2022/12/06 04:46:10;;;;;;;50.13;26.90;;;1.80;99.90;1.00;100208;;;;579783;242;24149;-77
2022/12/06 04:48:38;;;;;;;47.73;27.87;;;1.80;99.90;1.00;100196;;;;593489;242;24073;-77
2022/12/06 04:51:09;;;;;;;47.97;26.53;;;1.80;99.90;1.00;100201;;;;584463;242;24095;-79
2022/12/06 04:53:34;;;;;;;42.67;24.50;;;1.80;99.90;1.00;100200;;;;584006;242;24080;-79
2022/12/06 04:56:02;;;;;;;42.47;24.97;;;1.80;99.90;1.00;100194;;;;583861;242;24055;-79
2022/12/06 04:58:30;;;;;;;50.10;27.10;;;1.80;99.90;1.00;100184;;;;583769;242;24066;-78
2022/12/06 05:00:58;;;;;;;44.87;26.20;;;1.80;99.90;1.00;100179;;;;583853;242;24080;-79
2022/12/06 05:03:27;;;;;;;49.10;26.93;;;1.80;99.90;1.00;100187;;;;583684;242;24057;-77
2022/12/06 05:05:55;;;;;;;45.37;25.57;;;1.80;99.90;1.00;100189;;;;583782;242;24053;-76
2022/12/06 05:08:26;;;;;;;47.13;25.17;;;1.80;99.90;1.00;100183;;;;582630;242;24055;-77
2022/12/06 05:10:54;;;;;;;47.93;25.40;;;1.80;99.90;1.00;100180;;;;582348;242;24052;-76
2022/12/06 05:13:22;;;;;;;39.93;24.60;;;1.80;99.90;1.00;100184;;;;583556;242;24082;-76
2022/12/06 05:15:52;;;;;;;44.30;26.20;;;1.80;99.90;1.00;100184;;;;592279;242;24170;-76
2022/12/06 05:18:20;;;;;;;41.83;25.27;;;1.90;99.90;1.00;100180;;;;583944;242;24060;-78
2022/12/06 05:20:52;;;;;;;40.77;25.07;;;1.90;99.90;1.10;100176;;;;583986;242;24065;-78
2022/12/06 05:23:19;;;;;;;39.47;24.53;;;1.90;99.90;1.10;100171;;;;583670;242;24194;-77
2022/12/06 05:25:44;;;;;;;45.53;26.87;;;1.90;99.90;1.10;100165;;;;581157;242;24075;-78
2022/12/06 05:28:12;;;;;;;46.80;24.03;;;1.90;99.90;1.10;100166;;;;582457;237;24060;-80
2022/12/06 05:30:40;;;;;;;39.23;24.10;;;1.90;99.90;1.10;100160;;;;574378;245;24122;-79
2022/12/06 05:33:08;;;;;;;43.00;24.97;;;1.90;99.90;1.10;100164;;;;570622;249;24104;-78
2022/12/06 05:35:36;;;;;;;42.30;24.33;;;1.90;99.90;1.10;100156;;;;564070;251;24225;-78
2022/12/06 05:38:05;;;;;;;39.50;24.00;;;1.90;99.90;1.00;100155;;;;574966;246;24091;-77
2022/12/06 05:40:33;;;;;;;39.43;22.40;;;1.90;99.90;1.00;100147;;;;575081;246;24088;-79
2022/12/06 05:43:02;;;;;;;40.57;23.70;;;1.90;99.90;1.10;100150;;;;575305;246;24087;-79
2022/12/06 05:45:30;;;;;;;43.43;24.37;;;1.90;99.90;1.10;100150;;;;577613;246;24128;-83
2022/12/06 05:48:01;;;;;;;39.43;23.27;;;1.90;99.90;1.10;100150;;;;585751;242;24060;-79
2022/12/06 05:50:29;;;;;;;39.93;23.20;;;1.90;99.90;1.00;100147;;;;585299;242;24132;-79
2022/12/06 05:52:57;;;;;;;35.83;22.37;;;1.90;99.90;1.10;100146;;;;585323;242;24189;-79
2022/12/06 05:55:25;;;;;;;35.60;18.45;;;1.90;99.90;1.10;100146;;;;579745;242;35200;-78
2022/12/06 05:57:53;;;;;;;35.50;21.05;;;1.90;99.90;1.10;100147;;;;579986;242;35152;-78
2022/12/06 06:00:21;;;;;;;26.23;13.43;;;1.90;99.90;1.10;100144;;;;584946;242;24061;-78
2022/12/06 06:02:49;;;;;;;28.03;12.57;;;2.00;99.90;1.20;100144;;;;584817;242;24082;-77
2022/12/06 06:05:17;;;;;;;21.17;12.20;;;2.00;99.90;1.20;100140;;;;584944;242;24114;-77
2022/12/06 06:07:45;;;;;;;22.67;12.97;;;2.00;99.90;1.20;100147;;;;588909;242;24077;-80
2022/12/06 06:10:13;;;;;;;26.80;14.30;;;2.00;99.90;1.20;100141;;;;570692;250;24158;-77
2022/12/06 06:12:44;;;;;;;33.80;21.47;;;2.00;99.90;1.20;100135;;;;571830;248;24101;-78
2022/12/06 06:15:09;;;;;;;35.33;22.27;;;2.00;99.90;1.20;100143;;;;573109;241;24124;-80
2022/12/06 06:17:41;;;;;;;36.50;22.80;;;2.10;99.90;1.20;100149;;;;573819;247;24150;-80
2022/12/06 06:20:06;;;;;;;40.30;23.30;;;2.00;99.90;1.20;100143;;;;573361;247;24086;-80
2022/12/06 06:22:35;;;;;;;35.57;22.00;;;2.10;99.90;1.30;100149;;;;563874;251;24130;-78
2022/12/06 06:25:07;;;;;;;35.23;23.23;;;2.10;99.90;1.30;100152;;;;572086;246;24107;-78
2022/12/06 06:27:36;;;;;;;43.70;24.20;;;2.10;99.90;1.30;100151;;;;563821;251;25166;-79
2022/12/06 06:30:00;;;;;;;37.80;22.47;;;2.10;99.90;1.30;100144;;;;563656;251;24151;-79
2022/12/06 06:32:28;;;;;;;42.07;24.70;;;2.10;99.90;1.30;100144;;;;564219;250;25207;-77
2022/12/06 06:34:56;;;;;;;37.07;23.90;;;2.10;99.90;1.30;100138;;;;569460;246;24092;-78
2022/12/06 06:37:24;;;;;;;34.87;22.87;;;2.10;99.90;1.30;100147;;;;573621;246;24142;-76
2022/12/06 06:39:52;;;;;;;35.83;22.90;;;2.10;99.90;1.30;100148;;;;573633;246;24086;-76
2022/12/06 06:42:24;;;;;;;42.87;24.90;;;2.10;99.90;1.30;100142;;;;574408;245;24134;-76
2022/12/06 06:44:52;;;;;;;36.83;23.77;;;2.10;99.90;1.30;100140;;;;574698;245;24133;-77
2022/12/06 06:47:17;;;;;;;34.27;24.23;;;2.10;99.90;1.30;100136;;;;573975;245;24118;-76
2022/12/06 06:49:45;;;;;;;33.90;23.27;;;2.10;99.90;1.30;100139;;;;574249;245;24104;-76
2022/12/06 06:52:16;;;;;;;35.40;24.37;;;2.10;99.90;1.30;100142;;;;574201;245;24138;-76
2022/12/06 06:54:42;;;;;;;42.97;27.85;;;2.10;99.90;1.30;100141;;;;569054;245;35339;-77
2022/12/06 06:57:10;;;;;;;34.00;15.47;;;2.10;99.90;1.30;100134;;;;574220;245;24063;-77
2022/12/06 06:59:38;;;;;;;28.67;15.83;;;2.10;99.90;1.30;100137;;;;574285;246;24130;-76
2022/12/06 07:02:07;;;;;;;43.60;24.97;;;2.10;99.90;1.30;100130;;;;574053;246;25128;-75
2022/12/06 07:04:35;;;;;;;36.17;24.03;;;2.10;99.90;1.30;100127;;;;582907;246;24104;-76
2022/12/06 07:07:06;;;;;;;34.83;23.83;;;2.10;99.90;1.30;100141;;;;574107;246;24079;-77
2022/12/06 07:09:31;;;;;;;37.63;23.57;;;2.10;99.90;1.30;100141;;;;573830;246;24113;-78
2022/12/06 07:11:59;;;;;;;38.63;24.17;;;2.10;99.90;1.30;100147;;;;574190;246;24107;-78
2022/12/06 07:14:27;;;;;;;35.15;19.40;;;2.20;99.90;1.30;100143;;;;569136;246;35358;-76
2022/12/06 07:17:03;;;;;;;24.20;13.23;;;2.20;99.90;1.30;100142;;;;574144;246;24083;-77
2022/12/06 07:19:31;;;;;;;31.80;13.70;;;2.10;99.90;1.40;100138;;;;582949;241;24195;-77
2022/12/06 07:21:59;;;;;;;24.37;14.50;;;2.20;99.90;1.40;100146;;;;574013;246;24114;-76
2022/12/06 07:24:27;;;;;;;31.93;13.93;;;2.20;99.90;1.40;100147;;;;573800;246;24110;-77
2022/12/06 07:26:56;;;;;;;25.30;14.27;;;2.30;99.90;1.40;100149;;;;574008;246;24088;-77
2022/12/06 07:29:23;;;;;;;31.43;18.27;;;2.30;99.90;1.50;100141;;;;582247;246;24106;-78
2022/12/06 07:31:51;;;;;;;36.40;21.53;;;2.30;99.90;1.50;100140;;;;574063;246;24087;-78
2022/12/06 07:34:19;;;;;;;38.00;22.47;;;2.30;99.90;1.50;100137;;;;573472;246;24146;-75
2022/12/06 07:36:47;;;;;;;38.83;23.60;;;2.40;99.90;1.50;100133;;;;573077;246;24103;-75
2022/12/06 07:39:15;;;;;;;36.30;22.47;;;2.40;99.90;1.60;100133;;;;574336;246;24096;-76
2022/12/06 07:47:15;;;;;;;32.40;20.60;;;2.50;99.90;1.70;100126;;;;574290;246;24174;-77
2022/12/06 07:49:47;;;;;;;37.00;20.90;;;2.60;99.90;1.80;100124;;;;574267;246;24088;-76
2022/12/06 07:52:11;;;;;;;33.17;21.20;;;2.60;99.90;1.80;100121;;;;574139;246;24140;-75
2022/12/06 07:54:40;;;;;;;29.13;18.90;;;2.70;99.90;1.80;100115;;;;575759;245;24151;-76
2022/12/06 07:57:07;;;;;;;29.57;19.23;;;2.70;99.90;1.90;100122;;;;575496;241;24070;-77
2022/12/06 07:59:35;;;;;;;28.97;19.40;;;2.70;99.90;1.90;100120;;;;575050;245;24100;-76
2022/12/06 08:02:07;;;;;;;28.40;18.80;;;2.80;99.90;1.90;100126;;;;574799;245;24148;-77
2022/12/06 08:04:31;;;;;;;24.13;17.57;;;2.80;99.90;2.00;100121;;;;574064;245;24120;-76
2022/12/06 08:06:59;;;;;;;26.63;18.13;;;2.90;99.90;2.00;100127;;;;574506;245;24139;-78
2022/12/06 08:09:27;;;;;;;28.60;17.53;;;2.90;99.90;2.10;100121;;;;574291;245;24090;-77
2022/12/06 08:11:55;;;;;;;27.13;17.77;;;2.90;99.90;2.10;100131;;;;574348;246;24083;-78
2022/12/06 08:14:23;;;;;;;25.90;17.97;;;3.00;99.90;2.10;100130;;;;574084;246;24113;-76
2022/12/06 08:16:51;;;;;;;25.97;18.20;;;3.00;99.90;2.20;100125;;;;574557;246;25165;-77
2022/12/06 08:19:19;;;;;;;30.03;18.37;;;3.00;99.90;2.20;100131;;;;574528;246;24103;-76
2022/12/06 08:21:48;;;;;;;27.17;16.57;;;3.10;99.90;2.30;100124;;;;574598;246;24114;-76
2022/12/06 08:24:16;;;;;;;22.37;13.43;;;3.10;99.90;2.30;100125;;;;574470;246;24093;-76
2022/12/06 08:26:43;;;;;;;25.37;12.13;;;3.20;99.90;2.30;100127;;;;574611;246;25126;-77
2022/12/06 08:29:11;;;;;;;26.93;13.43;;;3.20;99.90;2.40;100123;;;;574446;246;24216;-78
2022/12/06 08:31:42;;;;;;;26.57;15.17;;;3.20;99.90;2.40;100119;;;;574262;246;24126;-76
2022/12/06 08:34:07;;;;;;;45.63;23.63;;;3.30;99.90;2.50;100123;;;;573909;246;24154;-77
2022/12/06 08:36:35;;;;;;;47.67;23.87;;;3.30;99.90;2.50;100123;;;;574003;246;24083;-78
2022/12/06 08:39:07;;;;;;;33.30;18.57;;;3.40;99.90;2.60;100130;;;;574293;246;24106;-77
2022/12/06 08:44:17;;;;;;;32.20;21.10;;;3.50;99.90;2.70;100131;;;;569291;246;46273;-76
2022/12/06 08:46:48;;;;;;;20.30;14.20;;;3.50;99.90;2.70;100129;;;;573646;246;24148;-76
2022/12/06 08:49:13;;;;;;;21.47;12.50;;;3.60;99.90;2.80;100132;;;;573773;246;24102;-77
2022/12/06 08:51:41;;;;;;;15.87;10.40;;;3.70;99.90;2.90;100142;;;;583198;246;24124;-77
2022/12/06 08:54:09;;;;;;;18.93;11.03;;;3.70;99.90;2.90;100130;;;;573552;246;24127;-77
2022/12/06 08:56:36;;;;;;;24.50;11.27;;;3.70;99.90;2.90;100140;;;;582972;246;24105;-76
2022/12/06 08:59:09;;;;;;;14.50;10.37;;;3.70;99.90;2.90;100138;;;;574033;246;24096;-77
2022/12/06 09:01:33;;;;;;;23.52;15.35;;;3.70;99.90;2.90;100140;;;;568565;246;46328;-77
2022/12/06 09:04:00;;;;;;;18.87;12.53;;;3.80;99.90;2.90;100135;;;;573927;246;24162;-76
2022/12/06 09:06:32;;;;;;;16.27;10.40;;;3.80;99.90;2.90;100132;;;;574986;245;24133;-77
2022/12/06 09:08:57;;;;;;;20.67;10.63;;;3.80;99.90;3.00;100129;;;;574760;245;24127;-78
2022/12/06 09:11:25;;;;;;;19.07;10.30;;;3.90;99.90;3.00;100135;;;;574539;245;25201;-76
2022/12/06 09:13:53;;;;;;;20.57;12.07;;;3.90;99.90;3.10;100115;;;;574743;245;24140;-78
2022/12/06 09:16:21;;;;;;;19.30;12.13;;;3.90;99.90;3.20;100114;;;;583349;245;24105;-78
2022/12/06 09:18:50;;;;;;;25.37;13.80;;;4.00;99.90;3.20;100120;;;;574405;245;24122;-78
2022/12/06 09:21:17;;;;;;;19.13;11.77;;;4.00;99.90;3.20;100120;;;;574482;245;24104;-77
2022/12/06 09:23:45;;;;;;;23.63;12.70;;;4.10;99.90;3.30;100119;;;;582988;246;24090;-76
2022/12/06 09:26:16;;;;;;;18.60;11.57;;;4.20;99.90;3.30;100111;;;;574312;246;24129;-74
2022/12/06 09:28:42;;;;;;;19.10;12.13;;;4.20;99.90;3.40;100107;;;;583149;245;24107;-78
2022/12/06 09:31:13;;;;;;;18.17;11.30;;;4.20;99.90;3.40;100106;;;;574311;246;24101;-78
2022/12/06 09:33:38;;;;;;;20.93;12.20;;;4.20;99.90;3.40;100108;;;;574319;246;24094;-77
2022/12/06 09:36:06;;;;;;;18.73;11.87;;;4.30;99.90;3.50;100104;;;;574535;246;24081;-76
2022/12/06 09:38:37;;;;;;;21.10;11.47;;;4.30;99.90;3.60;100095;;;;583183;246;24122;-77
2022/12/06 09:41:14;;;;;;;18.40;11.97;;;4.40;99.90;3.70;100092;;;;574205;245;24108;-78
2022/12/06 09:43:51;;;;;;;29.27;12.40;;;4.60;99.90;3.70;100084;;;;572959;246;24101;-77
2022/12/06 09:46:22;;;;;;;23.70;12.77;;;4.50;99.90;3.80;100080;;;;573076;246;24119;-77
2022/12/06 09:49:20;;;;;;;22.37;13.20;;;4.60;99.90;3.80;100078;;;;573841;242;24121;-78
2022/12/06 09:52:07;;;;;;;22.53;12.67;;;4.60;99.90;3.80;100076;;;;574324;246;24114;-76
2022/12/06 09:55:21;;;;;;;24.90;11.80;;;4.60;99.90;3.80;100077;;;;573096;246;24114;-76
2022/12/06 09:58:00;;;;;;;19.50;11.87;;;4.60;99.90;3.80;100081;;;;563432;251;24150;-75
2022/12/06 10:00:28;;;;;;;21.17;11.63;;;4.60;99.90;3.80;100070;;;;532794;259;24194;-77
2022/12/06 10:03:14;;;;;;;24.43;13.37;;;4.60;99.90;3.80;100069;;;;562660;250;24144;-75
2022/12/06 10:06:02;;;;;;;21.93;13.50;;;4.60;99.90;3.80;100076;;;;573866;246;24110;-77
2022/12/06 10:08:48;;;;;;;19.37;12.73;;;4.60;99.90;3.80;100061;;;;573931;246;24146;-77
2022/12/06 10:11:56;;;;;;;17.73;11.27;;;4.60;99.90;3.70;100063;;;;582601;246;25118;-75
2022/12/06 10:14:54;;;;;;;22.93;12.00;;;4.50;99.90;3.70;100056;;;;573951;246;24149;-76
2022/12/06 10:17:46;;;;;;;22.80;12.23;;;4.50;99.90;3.70;100062;;;;575310;245;24083;-76
2022/12/06 10:20:22;;;;;;;21.57;13.37;;;4.50;99.90;3.60;100058;;;;564896;245;24151;-78
2022/12/06 10:23:24;;;;;;;23.70;12.37;;;4.40;99.90;3.50;100050;;;;582566;245;24112;-75
2022/12/06 10:26:14;;;;;;;22.57;11.70;;;4.20;99.90;3.50;100051;;;;574602;245;24101;-76
2022/12/06 10:29:07;;;;;;;21.03;13.33;;;4.20;99.90;3.40;100059;;;;583086;245;24108;-77
2022/12/06 10:31:43;;;;;;;25.80;12.70;;;4.20;99.90;3.40;100050;;;;572239;245;24235;-74
2022/12/06 10:34:14;;;;;;;22.70;12.40;;;4.10;99.90;3.30;100039;;;;574559;245;24105;-75
2022/12/06 10:36:58;;;;;;;26.63;18.57;;;4.00;99.90;3.30;100039;;;;569140;241;35377;-76
2022/12/06 10:39:47;;;;;;;30.85;21.27;;;4.00;99.90;3.20;100034;;;;577339;246;35468;-75
2022/12/06 10:42:33;;;;;;;25.53;15.07;;;4.00;99.90;3.30;100033;;;;582527;246;24117;-77
2022/12/06 10:47:02;;;;;;;29.10;15.03;;;4.00;99.90;3.30;100024;;;;574669;246;24095;-76
2022/12/06 10:47:37;;;;;;;22.67;13.83;;;4.00;99.90;3.30;100032;;;;574507;246;24109;-76
2022/12/06 10:50:06;;;;;;;28.55;18.80;;;4.10;99.90;3.30;100019;;;;569201;246;35526;-76
2022/12/06 10:52:49;;;;;;;25.10;16.40;;;4.10;99.90;3.30;100012;;;;581902;246;24153;-76
2022/12/06 10:55:43;;;;;;;23.10;12.90;;;4.10;99.90;3.30;100018;;;;574139;246;24117;-77
2022/12/06 10:58:37;;;;;;;24.70;13.07;;;4.10;99.90;3.30;100019;;;;574044;246;24107;-77
2022/12/06 11:01:05;;;;;;;21.07;13.37;;;4.10;99.90;3.30;100013;;;;581817;246;25180;-76
2022/12/06 11:03:33;;;;;;;23.27;13.77;;;4.10;99.90;3.40;100021;;;;581570;242;24099;-77
2022/12/06 11:06:31;;;;;;;22.60;12.97;;;4.10;99.90;3.40;100011;;;;573234;241;26268;-76
2022/12/06 11:09:11;;;;;;;23.53;12.90;;;4.10;99.90;3.30;100002;;;;582531;246;24098;-75
2022/12/06 11:11:39;;;;;;;24.10;14.00;;;4.10;99.90;3.30;100006;;;;582272;242;24164;-76
2022/12/06 11:14:25;;;;;;;27.77;14.23;;;4.10;99.90;3.30;100004;;;;573683;246;24123;-75
2022/12/06 11:17:04;;;;;;;22.83;13.20;;;4.00;99.90;3.30;99997;;;;573946;246;24090;-75
2022/12/06 11:19:35;;;;;;;27.40;15.30;;;4.10;99.90;3.30;99992;;;;582061;246;25243;-75
2022/12/06 11:22:49;;;;;;;27.17;15.80;;;4.10;99.90;3.30;99984;;;;573985;246;24151;-74
2022/12/06 11:25:27;;;;;;;36.27;18.40;;;4.10;99.90;3.30;99992;;;;574122;246;24098;-75
2022/12/06 11:28:00;;;;;;;34.83;18.80;;;4.10;99.90;3.30;100002;;;;582924;244;24145;-75
2022/12/06 11:30:31;;;;;;;34.67;17.50;;;4.00;99.90;3.30;99996;;;;574980;245;24129;-75
2022/12/06 11:32:56;;;;;;;32.17;14.80;;;4.00;99.90;3.30;100004;;;;583740;241;24111;-76
2022/12/06 11:35:25;;;;;;;34.63;22.62;;;4.00;99.90;3.30;99994;;;;570011;245;35413;-76
2022/12/06 11:37:55;;;;;;;27.70;17.63;;;4.00;99.90;3.30;99998;;;;574732;245;25214;-75
2022/12/06 11:40:26;;;;;;;24.13;14.40;;;4.00;99.90;3.30;99998;;;;574649;245;24125;-75
2022/12/06 11:42:54;;;;;;;27.63;15.63;;;4.00;99.90;3.30;99996;;;;574653;245;24107;-75
2022/12/06 11:45:25;;;;;;;28.27;16.40;;;4.00;99.90;3.30;100000;;;;582223;245;24133;-75
2022/12/06 11:47:55;;;;;;;24.77;15.37;;;4.10;99.90;3.30;100003;;;;572704;246;24183;-81
2022/12/06 11:50:23;;;;;;;34.00;15.40;;;4.00;99.90;3.30;99994;;;;561362;251;24092;-76
2022/12/06 11:53:06;;;;;;;27.37;15.63;;;4.10;99.90;3.30;99991;;;;567471;248;24152;-78
2022/12/06 11:55:36;;;;;;;25.00;15.90;;;4.10;99.90;3.30;99996;;;;568117;246;24166;-77
2022/12/06 11:58:10;;;;;;;26.40;13.73;;;4.10;99.90;3.30;100003;;;;586911;242;24166;-76
2022/12/06 12:00:38;;;;;;;21.43;14.57;;;4.10;99.90;3.30;99991;;;;587952;238;24048;-75